Time;durP1;ratioP1;P1;durP2;ratioP2;P2;SDS_P1;SDS_P2;PMS_P1;PMS_P2;Temp;Humidity;BMP_temperature;BMP_pressure;BME280_temperature;BME280_humidity;BME280_pressure;Samples;Min_cycle;Max_cycle;Signal;HPM_P1;HPM_P2
2024/04/23 00:05:14;;;;;;;4.00;2.60;;;;;;;8.45;72.00;99358.27;102554;1292;599543;-27
2024/04/23 00:07:42;;;;;;;2.80;1.50;;;;;;;9.08;69.37;99359.05;104850;1264;61181;-27
2024/04/23 00:10:09;;;;;;;4.10;3.30;;;;;;;9.24;68.48;99360.04;104895;1270;61158;-26
2024/04/23 00:12:37;;;;;;;3.70;2.90;;;;;;;9.20;68.57;99356.86;104815;1266;73031;-26
2024/04/23 00:15:05;;;;;;;4.30;3.20;;;;;;;8.93;69.02;99355.75;104827;1266;74323;-27
2024/04/23 00:17:32;;;;;;;4.10;3.20;;;;;;;8.67;69.89;99360.33;104811;1266;72667;-26
2024/04/23 00:20:00;;;;;;;3.70;2.70;;;;;;;8.54;70.50;99365.20;101517;1263;4919394;-26
2024/04/23 00:22:27;;;;;;;3.60;2.40;;;;;;;8.40;71.23;99369.54;105131;1263;61090;-26
2024/04/23 00:24:55;;;;;;;3.30;2.70;;;;;;;8.92;70.29;99371.92;105107;1263;61190;-26
2024/04/23 00:27:22;;;;;;;4.10;3.20;;;;;;;9.55;68.21;99377.06;105144;1263;74298;-26
2024/04/23 00:37:28;;;;;;;5.80;4.20;;;;;;;8.83;69.60;99381.35;102562;1292;600105;-26
2024/04/23 00:47:33;;;;;;;4.70;3.40;;;;;;;9.79;67.78;99380.52;102581;1294;600195;-26
2024/04/23 00:50:00;;;;;;;4.70;3.40;;;;;;;9.92;66.83;99380.46;104852;1269;61657;-27
2024/04/23 00:52:28;;;;;;;5.80;3.40;;;;;;;9.72;66.49;99384.33;104841;1269;61310;-29
2024/04/23 01:02:38;;;;;;;3.70;2.50;;;;;;;8.81;69.44;99381.00;102574;1295;600277;-26
2024/04/23 01:05:06;;;;;;;5.90;3.40;;;;;;;9.04;69.53;99378.87;104901;1270;61731;-26
2024/04/23 01:07:33;;;;;;;5.30;3.60;;;;;;;9.21;67.83;99372.67;104885;1270;61169;-26
2024/04/23 01:10:00;;;;;;;5.70;3.80;;;;;;;9.11;68.01;99378.58;104857;1266;73047;-26
2024/04/23 01:20:12;;;;;;;4.40;2.90;;;;;;;8.51;68.28;99382.52;102564;1291;600323;-25
2024/04/23 01:23:14;;;;;;;3.20;2.40;;;;;;;8.28;69.07;99383.64;104915;1272;61342;-26
2024/04/23 01:25:43;;;;;;;3.60;2.90;;;;;;;9.03;67.23;99384.10;104862;1270;61142;-28
2024/04/23 01:28:11;;;;;;;2.60;2.40;;;;;;;9.48;64.91;99387.09;104800;1267;73140;-28
2024/04/23 01:30:39;;;;;;;5.50;3.00;;;;;;;9.31;64.86;99391.91;104814;1274;73239;-28
2024/04/23 01:33:06;;;;;;;4.00;3.10;;;;;;;9.03;65.38;99390.19;100856;1264;5080024;-28
2024/04/23 01:35:34;;;;;;;5.40;3.20;;;;;;;8.90;65.91;99393.04;104840;1267;61163;-28
2024/04/23 01:45:16;;;;;;;2.90;2.50;;;;;;;8.42;67.93;99390.34;102642;1290;600250;-26
2024/04/23 01:55:27;;;;;;;3.10;2.30;;;;;;;8.34;66.91;99401.72;102655;1289;600199;-26
2024/04/23 01:57:55;;;;;;;4.30;2.70;;;;;;;8.12;67.66;99405.09;105043;1264;61164;-25
2024/04/23 02:00:23;;;;;;;3.90;2.60;;;;;;;7.97;68.42;99405.03;104843;1264;61077;-26
2024/04/23 02:02:51;;;;;;;4.70;2.40;;;;;;;7.74;69.30;99407.02;104886;1269;72990;-25
2024/04/23 02:12:57;;;;;;;4.10;2.40;;;;;;;8.62;66.36;99406.50;102635;1292;599387;-27
2024/04/23 02:15:24;;;;;;;3.90;2.60;;;;;;;8.43;66.92;99410.00;104817;1271;61614;-27
2024/04/23 02:17:52;;;;;;;5.70;2.80;;;;;;;8.15;67.60;99410.27;105547;1256;61199;-29
2024/04/23 02:20:19;;;;;;;3.20;2.50;;;;;;;7.91;68.19;99414.41;105370;1263;73060;-27
2024/04/23 02:22:47;;;;;;;3.10;1.80;;;;;;;7.60;69.51;99419.98;105603;1262;74296;-27
2024/04/23 02:25:14;;;;;;;3.20;2.30;;;;;;;8.15;68.87;99422.70;105525;1256;72721;-27
2024/04/23 02:27:41;;;;;;;3.20;2.40;;;;;;;8.77;66.63;99422.48;101930;1259;5024591;-27
2024/04/23 02:30:09;;;;;;;3.80;2.50;;;;;;;8.68;66.08;99428.06;105643;1260;61141;-27
2024/04/23 02:32:37;;;;;;;3.30;2.40;;;;;;;8.34;66.69;99424.41;105664;1259;61244;-28
2024/04/23 02:35:05;;;;;;;4.60;2.90;;;;;;;8.05;67.86;99426.99;105679;1259;74257;-27
2024/04/23 02:37:32;;;;;;;6.50;2.30;;;;;;;7.80;68.90;99426.66;105593;1262;72657;-27
2024/04/23 02:39:59;;;;;;;2.90;2.00;;;;;;;7.52;69.70;99428.95;105590;1257;60978;-27
2024/04/23 02:42:31;;;;;;;4.70;2.10;;;;;;;7.38;71.15;99427.91;105646;1257;61022;-27
2024/04/23 02:44:58;;;;;;;6.20;2.30;;;;;;;7.78;69.89;99429.89;105644;1260;72881;-28
2024/04/23 02:47:26;;;;;;;3.30;2.10;;;;;;;8.24;68.20;99428.88;105582;1259;74384;-27
2024/04/23 02:57:38;;;;;;;4.40;2.70;;;;;;;7.91;69.39;99435.45;103259;1286;600158;-25
2024/04/23 03:00:06;;;;;;;3.70;2.50;;;;;;;7.65;69.81;99441.98;105269;1260;61085;-25
2024/04/23 03:02:34;;;;;;;2.30;1.70;;;;;;;7.49;70.58;99445.52;105277;1260;61191;-25
2024/04/23 03:05:03;;;;;;;2.70;2.20;;;;;;;8.07;69.38;99444.98;105281;1261;73017;-27
2024/04/23 03:07:31;;;;;;;4.20;2.50;;;;;;;8.57;66.99;99442.67;105609;1254;73080;-28
2024/04/23 03:09:58;;;;;;;2.60;2.10;;;;;;;8.51;66.49;99445.62;105600;1260;70375;-29
2024/04/23 03:12:26;;;;;;;3.60;2.70;;;;;;;8.24;67.43;99453.78;102050;1257;61171;-25
2024/04/23 03:14:53;;;;;;;2.80;2.20;;;;;;;8.07;67.85;99449.19;105880;1256;72991;-25
2024/04/23 03:17:21;;;;;;;2.90;2.30;;;;;;;7.96;68.20;99452.45;105695;1257;74482;-25
2024/04/23 03:19:49;;;;;;;3.80;2.20;;;;;;;7.82;68.69;99451.97;105659;1254;72593;-25
2024/04/23 03:22:16;;;;;;;4.50;2.00;;;;;;;7.60;69.37;99447.46;105656;1257;61161;-25
2024/04/23 03:24:43;;;;;;;3.20;2.10;;;;;;;7.97;68.87;99446.64;105709;1257;61150;-25
2024/04/23 03:27:11;;;;;;;3.00;2.70;;;;;;;8.44;67.01;99446.79;105836;1254;73876;-25
2024/04/23 03:37:23;;;;;;;4.20;2.30;;;;;;;8.43;66.82;99435.27;102530;1292;600193;-25
2024/04/23 03:39:51;;;;;;;3.60;2.40;;;;;;;8.09;67.91;99435.38;105682;1255;60979;-25
2024/04/23 03:42:18;;;;;;;2.00;1.70;;;;;;;7.81;68.33;99433.21;105633;1259;61106;-27
2024/04/23 03:44:46;;;;;;;3.80;2.20;;;;;;;8.33;67.22;99433.29;105602;1256;71791;-28
2024/04/23 03:47:14;;;;;;;3.60;2.10;;;;;;;8.84;65.37;99433.76;105569;1255;73415;-28
2024/04/23 03:49:42;;;;;;;5.10;2.40;;;;;;;8.67;64.83;99433.39;105650;1257;71404;-28
2024/04/23 03:59:49;;;;;;;4.80;2.60;;;;;;;8.26;65.96;99448.30;102528;1292;600271;-25
2024/04/23 04:12:44;;;;;;;3.30;2.20;;;;;;;9.64;62.21;99450.41;102552;1295;601170;-26
2024/04/23 04:15:11;;;;;;;2.40;2.20;;;;;;;9.04;62.04;99449.70;104819;1279;61129;-25
2024/04/23 04:17:38;;;;;;;3.70;2.30;;;;;;;8.68;63.31;99451.23;104865;1264;61046;-25
2024/04/23 04:20:06;;;;;;;3.20;2.10;;;;;;;8.62;64.68;99450.25;104877;1264;73030;-27
2024/04/23 04:22:34;;;;;;;2.80;1.80;;;;;;;8.70;64.16;99454.41;104876;1269;73542;-26
2024/04/23 04:32:44;;;;;;;3.00;1.30;;;;;;;8.39;65.60;99463.39;102565;1292;599975;-26
2024/04/23 04:35:12;;;;;;;3.10;2.20;;;;;;;9.00;64.78;99461.73;105291;1259;61127;-26
2024/04/23 04:37:40;;;;;;;2.50;1.30;;;;;;;9.56;62.71;99461.92;105596;1255;61044;-26
2024/04/23 04:40:07;;;;;;;2.90;2.10;;;;;;;9.67;62.11;99456.83;105636;1254;72998;-26
2024/04/23 04:42:35;;;;;;;3.50;2.10;;;;;;;9.48;61.89;99460.26;105637;1257;74478;-26
2024/04/23 04:45:03;;;;;;;2.90;2.00;;;;;;;9.21;63.29;99458.80;105580;1259;74945;-26
2024/04/23 04:47:31;;;;;;;3.10;2.40;;;;;;;8.90;63.71;99455.36;102029;1258;4950189;-26
2024/04/23 04:49:59;;;;;;;2.60;2.10;;;;;;;8.54;65.28;99455.86;105858;1253;61229;-28
2024/04/23 04:54:40;;;;;;;4.40;2.60;;;;;;;8.16;66.63;99459.65;103476;1283;600356;-26
2024/04/23 04:57:08;;;;;;;2.40;1.90;;;;;;;8.30;66.38;99458.23;105051;1269;61096;-27
2024/04/23 04:59:35;;;;;;;2.60;2.10;;;;;;;8.78;65.53;99463.21;104851;1264;61132;-27
2024/04/23 05:02:03;;;;;;;6.10;2.60;;;;;;;9.51;62.61;99469.89;104867;1269;73016;-27
2024/04/23 05:04:30;;;;;;;2.90;2.10;;;;;;;9.71;61.31;99473.34;104902;1264;76669;-27
2024/04/23 05:06:58;;;;;;;3.30;2.20;;;;;;;9.68;61.59;99479.30;104896;1264;72761;-27
2024/04/23 05:09:25;;;;;;;2.70;1.90;;;;;;;9.52;61.60;99481.59;105289;1263;4754308;-28
2024/04/23 05:11:52;;;;;;;5.20;2.70;;;;;;;9.42;62.24;99477.97;108859;1262;58692;-28
2024/04/23 05:14:20;;;;;;;2.70;2.50;;;;;;;9.21;63.54;99480.95;108786;1262;58777;-28
2024/04/23 05:16:47;;;;;;;3.90;2.70;;;;;;;9.02;63.35;99476.88;108797;1262;59297;-28
2024/04/23 05:19:14;;;;;;;3.50;2.80;;;;;;;8.88;63.73;99479.91;109210;1254;71954;-29
2024/04/23 05:21:41;;;;;;;3.20;1.70;;;;;;;8.78;64.25;99479.34;109208;1257;61798;-28
2024/04/23 05:24:08;;;;;;;3.40;2.40;;;;;;;9.34;63.90;99484.55;109257;1254;62268;-28
2024/04/23 05:26:36;;;;;;;2.60;2.00;;;;;;;9.87;60.95;99484.03;109249;1254;74047;-28
2024/04/23 05:29:03;;;;;;;2.60;2.30;;;;;;;10.00;61.23;99481.34;109351;1254;76617;-28
2024/04/23 05:34:16;;;;;;;5.10;2.70;;;;;;;9.30;61.02;99489.02;109141;1256;62646;-28
2024/04/23 05:36:43;;;;;;;3.40;2.70;;;;;;;9.44;60.93;99485.77;109242;1254;58662;-28
2024/04/23 05:39:11;;;;;;;2.70;2.40;;;;;;;9.42;60.28;99485.58;109253;1254;74922;-29
2024/04/23 05:41:38;;;;;;;3.50;2.50;;;;;;;9.38;60.77;99480.98;109254;1254;73103;-28
2024/04/23 05:44:05;;;;;;;3.60;2.60;;;;;;;9.28;61.38;99481.66;109224;1254;73881;-28
2024/04/23 05:46:33;;;;;;;3.20;2.50;;;;;;;9.18;61.73;99485.02;109227;1254;60988;-29
2024/04/23 05:49:37;;;;;;;4.20;2.80;;;;;;;9.01;61.70;99487.49;109173;1254;58721;-28
2024/04/23 05:53:01;;;;;;;4.40;2.40;;;;;;;9.07;61.42;99487.95;109207;1254;73109;-29
2024/04/23 05:55:47;;;;;;;2.30;1.50;;;;;;;8.93;62.69;99491.16;109208;1254;74326;-29
2024/04/23 05:58:15;;;;;;;3.50;2.30;;;;;;;9.91;61.25;99492.55;109219;1254;74586;-29
2024/04/23 06:00:42;;;;;;;2.70;2.20;;;;;;;10.52;58.80;99493.56;109204;1254;58756;-29
2024/04/23 06:03:10;;;;;;;3.10;2.30;;;;;;;10.56;57.65;99493.46;109249;1254;61382;-29
2024/04/23 06:05:37;;;;;;;2.40;2.10;;;;;;;10.48;57.71;99498.02;109206;1254;73551;-29
2024/04/23 06:08:05;;;;;;;5.60;2.40;;;;;;;10.31;58.91;99497.35;109220;1254;76648;-29
2024/04/23 06:10:32;;;;;;;4.50;2.40;;;;;;;10.06;59.40;99496.38;109227;1256;73602;-29
2024/04/23 06:12:59;;;;;;;3.40;2.80;;;;;;;9.98;60.23;99496.55;109195;1257;60976;-29
2024/04/23 06:15:27;;;;;;;5.30;3.00;;;;;;;9.44;60.33;99495.14;109220;1256;61870;-29
2024/04/23 06:17:54;;;;;;;3.70;2.80;;;;;;;9.66;60.76;99495.36;109161;1256;74841;-28
2024/04/23 06:20:21;;;;;;;5.30;3.40;;;;;;;9.70;60.91;99491.79;109136;1262;76621;-28
2024/04/23 06:22:52;;;;;;;7.50;3.90;;;;;;;9.25;62.59;99491.26;109120;1257;74610;-29
2024/04/23 06:25:20;;;;;;;3.10;2.20;;;;;;;9.68;61.68;99489.84;109193;1256;60948;-29
2024/04/23 06:27:47;;;;;;;3.90;3.10;;;;;;;9.38;61.80;99493.27;109155;1257;62394;-28
2024/04/23 06:30:15;;;;;;;4.80;3.10;;;;;;;9.35;61.77;99494.43;109123;1256;74752;-28
2024/04/23 06:32:42;;;;;;;3.80;3.00;;;;;;;9.79;60.72;99494.27;109251;1257;75475;-29
2024/04/23 06:35:10;;;;;;;4.40;3.00;;;;;;;9.96;61.01;99488.73;109230;1256;74581;-29
2024/04/23 06:37:37;;;;;;;4.20;3.00;;;;;;;10.55;59.71;99486.02;109056;1256;59356;-29
2024/04/23 06:40:08;;;;;;;3.70;2.30;;;;;;;11.44;57.64;99482.10;109159;1255;60972;-29
2024/04/23 06:42:36;;;;;;;5.00;2.80;;;;;;;11.91;55.59;99477.05;109099;1257;76197;-29
2024/04/23 06:45:04;;;;;;;3.10;2.70;;;;;;;11.71;54.64;99476.53;109155;1256;72842;-28
2024/04/23 06:47:33;;;;;;;3.50;3.20;;;;;;;11.51;54.57;99482.45;109110;1255;74217;-28
2024/04/23 06:50:00;;;;;;;7.00;2.60;;;;;;;12.13;55.34;99481.02;109067;1256;62193;-28
2024/04/23 06:52:28;;;;;;;3.60;2.90;;;;;;;12.54;55.06;99477.34;109212;1255;59743;-29
2024/04/23 06:54:55;;;;;;;7.80;3.70;;;;;;;12.27;53.90;99478.02;109134;1257;75369;-28
2024/04/23 06:57:22;;;;;;;4.80;3.20;;;;;;;10.85;55.57;99474.99;109171;1257;74153;-29
2024/04/23 06:59:49;;;;;;;6.30;4.30;;;;;;;11.48;55.45;99479.58;109132;1256;73619;-28
2024/04/23 07:02:17;;;;;;;5.90;4.20;;;;;;;11.24;55.52;99478.45;109120;1257;60839;-29
2024/04/23 07:04:45;;;;;;;5.20;3.70;;;;;;;11.48;54.54;99479.05;109249;1255;60925;-28
2024/04/23 07:07:12;;;;;;;17.40;10.10;;;;;;;11.29;55.06;99477.86;109256;1257;73594;-28
2024/04/23 07:09:39;;;;;;;4.50;3.60;;;;;;;10.62;57.77;99478.73;109221;1256;74264;-28
2024/04/23 07:12:07;;;;;;;4.10;3.50;;;;;;;11.52;56.14;99476.45;109184;1256;73615;-28
2024/04/23 07:14:34;;;;;;;3.80;3.40;;;;;;;11.05;55.77;99470.11;109106;1257;61019;-28
2024/04/23 07:17:01;;;;;;;7.90;5.20;;;;;;;10.58;56.14;99468.39;109198;1256;62060;-28
2024/04/23 07:19:29;;;;;;;8.00;4.30;;;;;;;11.67;56.16;99469.40;109093;1257;75261;-28
2024/04/23 07:21:56;;;;;;;4.20;3.50;;;;;;;12.01;55.36;99466.13;109124;1256;75371;-28
2024/04/23 07:24:23;;;;;;;4.80;3.60;;;;;;;12.58;53.97;99468.19;109094;1261;74551;-28
2024/04/23 07:26:53;;;;;;;7.60;5.80;;;;;;;13.01;54.48;99466.33;109087;1261;60976;-28
2024/04/23 07:29:20;;;;;;;7.50;5.40;;;;;;;12.89;52.92;99460.58;109122;1257;61903;-28
2024/04/23 07:31:48;;;;;;;5.60;4.30;;;;;;;12.98;51.55;99458.36;109186;1261;73589;-28
2024/04/23 07:34:15;;;;;;;8.00;5.60;;;;;;;12.60;52.20;99458.13;109093;1256;75939;-28
2024/04/23 07:36:42;;;;;;;9.30;4.80;;;;;;;12.40;52.15;99463.23;109115;1257;74482;-28
2024/04/23 07:39:13;;;;;;;21.20;11.70;;;;;;;12.69;52.10;99463.50;109161;1256;59811;-28
2024/04/23 07:41:41;;;;;;;22.00;10.70;;;;;;;12.80;51.16;99464.83;109159;1256;60942;-28
2024/04/23 07:44:08;;;;;;;7.30;5.20;;;;;;;12.29;51.19;99468.15;109142;1256;73866;-28
2024/04/23 07:46:36;;;;;;;7.50;4.20;;;;;;;12.69;50.73;99467.41;109142;1257;73750;-28
2024/04/23 07:49:03;;;;;;;4.40;3.50;;;;;;;12.84;50.02;99462.91;109111;1257;73602;-28
2024/04/23 07:51:32;;;;;;;6.00;3.60;;;;;;;12.90;50.55;99458.93;109136;1256;60950;-28
2024/04/23 07:53:59;;;;;;;4.70;3.10;;;;;;;12.83;50.18;99459.52;109115;1257;59823;-28
2024/04/23 07:56:27;;;;;;;5.20;3.30;;;;;;;12.90;49.89;99461.02;109095;1257;76098;-28
2024/04/23 07:58:54;;;;;;;6.80;3.70;;;;;;;12.93;50.27;99465.11;109125;1257;75411;-28
2024/04/23 08:01:21;;;;;;;2.90;2.40;;;;;;;12.91;49.39;99462.44;109134;1257;74803;-28
2024/04/23 08:03:48;;;;;;;3.60;2.90;;;;;;;12.84;49.75;99462.39;109087;1257;58765;-29
2024/04/23 08:06:16;;;;;;;3.50;2.70;;;;;;;12.88;49.68;99458.58;109143;1256;59495;-28
2024/04/23 08:08:43;;;;;;;4.50;2.50;;;;;;;13.14;49.45;99456.73;109162;1256;74011;-28
2024/04/23 08:11:10;;;;;;;3.60;3.10;;;;;;;13.15;48.55;99461.16;109077;1257;73751;-28
2024/04/23 08:13:39;;;;;;;4.30;3.10;;;;;;;13.47;48.98;99463.31;109142;1257;71378;-28
2024/04/23 08:16:07;;;;;;;2.70;2.40;;;;;;;13.32;48.44;99461.46;109105;1257;59821;-28
2024/04/23 08:18:34;;;;;;;9.60;4.80;;;;;;;13.19;48.22;99463.05;109124;1257;62208;-28
2024/04/23 08:21:05;;;;;;;5.70;4.20;;;;;;;13.08;47.63;99457.77;109106;1257;74748;-28
2024/04/23 08:23:33;;;;;;;5.00;3.70;;;;;;;12.86;48.72;99461.47;109009;1257;73803;-28
2024/04/23 08:26:08;;;;;;;5.20;3.70;;;;;;;12.79;49.26;99457.73;109078;1257;73592;-28
2024/04/23 08:28:36;;;;;;;3.40;2.90;;;;;;;12.62;50.02;99458.61;109076;1257;58778;-28
2024/04/23 08:31:03;;;;;;;5.10;3.30;;;;;;;12.54;50.02;99456.64;109075;1257;61715;-28
2024/04/23 08:33:31;;;;;;;3.40;2.60;;;;;;;12.68;50.16;99455.83;109066;1260;75078;-28
2024/04/23 08:35:58;;;;;;;3.30;2.60;;;;;;;12.65;50.80;99456.93;109116;1260;76504;-28
2024/04/23 08:38:26;;;;;;;2.80;2.50;;;;;;;12.74;50.43;99457.87;109079;1257;71492;-28
2024/04/23 08:40:55;;;;;;;3.20;2.30;;;;;;;12.76;50.19;99460.60;109088;1257;60322;-28
2024/04/23 08:43:26;;;;;;;5.10;2.40;;;;;;;12.80;50.16;99462.38;109125;1257;59108;-28
2024/04/23 08:45:54;;;;;;;3.00;2.40;;;;;;;12.81;49.98;99463.14;108944;1257;75873;-28
2024/04/23 08:48:21;;;;;;;3.20;2.20;;;;;;;12.83;49.72;99462.64;108995;1257;75928;-28
2024/04/23 08:50:49;;;;;;;3.80;2.20;;;;;;;12.86;49.88;99459.42;108952;1257;72723;-28
2024/04/23 08:53:16;;;;;;;4.20;2.40;;;;;;;12.93;50.37;99459.17;109082;1257;59749;-27
2024/04/23 08:55:44;;;;;;;3.70;2.30;;;;;;;13.03;50.14;99459.20;109104;1257;58720;-27
2024/04/23 08:58:11;;;;;;;2.40;2.10;;;;;;;12.95;50.07;99457.77;109127;1257;75344;-28
2024/04/23 09:00:41;;;;;;;3.90;2.20;;;;;;;13.13;49.91;99456.63;108984;1257;74156;-28
2024/04/23 09:03:19;;;;;;;2.90;2.10;;;;;;;13.33;49.28;99459.27;109080;1257;73659;-28
2024/04/23 09:05:46;;;;;;;2.20;1.70;;;;;;;13.31;49.17;99456.98;109071;1257;62802;-27
2024/04/23 09:08:15;;;;;;;2.00;1.80;;;;;;;13.34;49.44;99460.62;109099;1257;61183;-27
2024/04/23 09:10:43;;;;;;;2.50;2.30;;;;;;;13.03;48.58;99458.86;109059;1260;75653;-28
2024/04/23 09:13:11;;;;;;;2.40;2.20;;;;;;;13.11;49.65;99461.13;108896;1260;76522;-28
2024/04/23 09:15:39;;;;;;;2.90;2.40;;;;;;;13.28;48.70;99461.29;109063;1260;72441;-27
2024/04/23 09:18:07;;;;;;;2.90;2.00;;;;;;;13.20;48.86;99457.42;109025;1259;58967;-28
2024/04/23 09:20:34;;;;;;;7.50;2.40;;;;;;;13.40;49.14;99447.69;109084;1258;62214;-27
2024/04/23 09:23:01;;;;;;;2.20;2.00;;;;;;;13.62;49.33;99447.20;109062;1260;74382;-28
2024/04/23 09:25:34;;;;;;;5.60;2.00;;;;;;;13.91;47.52;99451.48;109066;1257;76468;-27
2024/04/23 09:28:02;;;;;;;3.10;2.00;;;;;;;14.23;47.36;99450.20;108886;1258;74256;-28
2024/04/23 09:30:30;;;;;;;2.50;2.20;;;;;;;14.46;47.76;99449.70;109044;1260;59180;-27
2024/04/23 09:33:02;;;;;;;4.10;2.30;;;;;;;14.73;47.49;99443.59;108994;1260;59998;-27
2024/04/23 09:35:30;;;;;;;4.70;2.90;;;;;;;15.24;45.25;99434.14;108920;1258;74462;-27
2024/04/23 09:37:57;;;;;;;2.80;2.20;;;;;;;15.69;44.23;99426.73;109063;1257;74628;-27
2024/04/23 09:40:24;;;;;;;2.10;1.80;;;;;;;16.24;44.87;99423.70;108964;1257;73302;-27
2024/04/23 09:42:55;;;;;;;6.70;2.80;;;;;;;16.52;44.59;99426.77;108992;1257;61030;-27
2024/04/23 09:45:25;;;;;;;2.50;1.90;;;;;;;16.69;43.45;99429.27;109022;1263;59039;-27
2024/04/23 09:47:52;;;;;;;3.30;3.00;;;;;;;16.78;42.28;99421.27;108978;1257;76822;-28
2024/04/23 09:50:20;;;;;;;2.10;1.90;;;;;;;16.51;42.70;99423.52;109081;1257;72595;-27
2024/04/23 09:52:47;;;;;;;2.40;2.20;;;;;;;16.62;42.03;99422.98;109017;1257;70969;-28
2024/04/23 09:55:16;;;;;;;2.70;2.30;;;;;;;16.56;42.65;99423.86;108861;1261;58871;-27
2024/04/23 09:57:44;;;;;;;4.90;2.50;;;;;;;15.96;42.95;99423.23;109021;1257;61181;-27
2024/04/23 10:00:11;;;;;;;2.40;2.20;;;;;;;14.71;44.20;99423.14;109112;1257;76761;-27
2024/04/23 10:02:39;;;;;;;2.80;2.20;;;;;;;14.19;44.70;99424.34;109086;1258;75407;-27
2024/04/23 10:05:10;;;;;;;3.60;2.00;;;;;;;14.58;44.39;99427.13;108927;1258;73808;-27
2024/04/23 10:07:56;;;;;;;2.50;1.60;;;;;;;14.71;44.75;99428.40;108934;1258;58978;-27
2024/04/23 10:10:29;;;;;;;3.30;2.40;;;;;;;14.97;44.12;99432.11;108863;1263;59197;-27
2024/04/23 10:12:57;;;;;;;2.40;2.00;;;;;;;14.71;44.11;99431.20;108830;1260;74385;-27
2024/04/23 10:15:29;;;;;;;1.70;1.40;;;;;;;14.74;46.12;99434.45;108970;1260;75469;-27
2024/04/23 10:18:03;;;;;;;3.20;1.90;;;;;;;14.68;45.45;99432.19;108891;1259;71613;-27
2024/04/23 10:20:37;;;;;;;2.10;1.90;;;;;;;14.49;45.19;99433.20;108780;1267;61144;-27
2024/04/23 10:23:05;;;;;;;3.60;1.60;;;;;;;14.37;46.08;99434.25;108963;1264;58927;-27
2024/04/23 10:25:33;;;;;;;2.50;1.90;;;;;;;14.13;47.31;99433.33;108967;1261;76223;-27
2024/04/23 10:28:04;;;;;;;3.00;1.40;;;;;;;13.82;48.04;99436.57;108978;1260;76665;-27
2024/04/23 10:30:31;;;;;;;2.40;1.40;;;;;;;13.59;48.40;99435.44;108942;1260;71569;-27
2024/04/23 10:32:59;;;;;;;4.10;1.80;;;;;;;13.44;49.00;99439.02;108906;1259;62262;-27
2024/04/23 10:35:26;;;;;;;2.50;1.90;;;;;;;13.30;49.22;99436.52;108970;1259;60957;-27
2024/04/23 10:37:54;;;;;;;3.50;1.70;;;;;;;13.20;49.73;99435.60;108904;1261;74656;-27
2024/04/23 10:40:21;;;;;;;2.10;1.60;;;;;;;13.25;49.24;99432.98;108988;1259;74652;-27
2024/04/23 10:42:49;;;;;;;3.10;1.70;;;;;;;13.25;49.84;99429.27;108948;1259;74233;-27
2024/04/23 10:45:16;;;;;;;1.80;1.50;;;;;;;13.54;49.10;99423.64;108922;1261;62313;-27
2024/04/23 10:47:50;;;;;;;2.80;1.70;;;;;;;13.88;48.51;99427.81;108979;1260;59044;-27
2024/04/23 10:50:28;;;;;;;3.20;1.70;;;;;;;14.15;47.88;99426.00;108803;1260;76884;-27
2024/04/23 10:52:56;;;;;;;2.30;1.80;;;;;;;14.19;46.84;99426.30;108885;1260;75460;-27
2024/04/23 10:55:25;;;;;;;3.10;1.50;;;;;;;14.08;47.53;99422.23;108748;1261;74743;-27
2024/04/23 10:57:56;;;;;;;2.20;1.70;;;;;;;14.26;46.83;99416.77;108868;1266;59155;-27
2024/04/23 11:00:31;;;;;;;2.50;1.70;;;;;;;14.63;46.72;99416.34;108759;1261;61446;-27
2024/04/23 11:02:59;;;;;;;2.20;1.50;;;;;;;15.20;46.77;99409.20;108784;1268;74457;-27
2024/04/23 11:05:31;;;;;;;2.00;1.50;;;;;;;15.51;45.36;99405.53;109000;1259;76581;-27
2024/04/23 11:08:06;;;;;;;1.90;1.70;;;;;;;15.69;45.30;99402.58;108807;1260;71899;-27
2024/04/23 11:10:49;;;;;;;2.10;1.80;;;;;;;15.59;45.12;99405.52;108780;1259;60307;-27
2024/04/23 11:13:26;;;;;;;2.10;1.70;;;;;;;15.54;45.96;99400.88;108894;1260;58920;-28
2024/04/23 11:16:00;;;;;;;1.60;1.50;;;;;;;15.43;45.14;99398.94;108812;1260;74425;-27
2024/04/23 11:18:38;;;;;;;2.50;2.10;;;;;;;15.37;45.16;99397.09;108769;1260;76085;-26
2024/04/23 11:21:08;;;;;;;2.50;2.10;;;;;;;15.30;45.63;99395.15;108768;1259;74211;-27
2024/04/23 11:23:42;;;;;;;2.10;1.80;;;;;;;15.33;45.77;99388.04;108794;1260;58919;-27
2024/04/23 11:26:13;;;;;;;2.50;2.10;;;;;;;15.36;45.94;99384.30;108802;1261;59840;-27
2024/04/23 11:28:42;;;;;;;2.40;1.80;;;;;;;15.41;46.03;99379.52;108874;1260;73361;-27
2024/04/23 11:31:12;;;;;;;2.10;1.60;;;;;;;15.57;45.44;99374.83;108928;1259;75396;-27
2024/04/23 11:33:43;;;;;;;1.90;1.60;;;;;;;15.67;45.66;99368.98;108869;1260;73383;-27
2024/04/23 11:36:12;;;;;;;2.30;2.00;;;;;;;15.88;45.34;99364.75;108781;1260;60781;-27
2024/04/23 11:38:43;;;;;;;1.80;1.40;;;;;;;16.08;45.03;99352.95;108817;1261;61204;-27
2024/04/23 11:41:18;;;;;;;2.60;2.20;;;;;;;16.33;45.06;99348.23;108895;1260;76837;-27
2024/04/23 11:43:48;;;;;;;2.50;1.90;;;;;;;16.44;43.53;99341.09;108941;1260;74148;-27
2024/04/23 11:46:18;;;;;;;3.30;1.70;;;;;;;16.64;44.46;99340.14;108794;1260;74789;-27
2024/04/23 11:48:48;;;;;;;3.10;2.00;;;;;;;16.45;43.89;99332.48;108884;1260;59067;-27
2024/04/23 11:51:18;;;;;;;3.10;1.70;;;;;;;16.20;44.48;99336.21;108883;1260;60204;-27
2024/04/23 11:53:49;;;;;;;3.00;2.10;;;;;;;16.29;44.50;99329.64;108803;1259;76885;-27
2024/04/23 11:56:20;;;;;;;2.20;1.70;;;;;;;16.41;45.23;99328.98;108809;1260;76011;-27
2024/04/23 11:58:52;;;;;;;3.30;2.20;;;;;;;16.37;44.31;99328.33;108863;1260;72122;-27
2024/04/23 12:01:22;;;;;;;1.80;1.50;;;;;;;16.29;45.00;99326.20;108821;1260;60883;-27
2024/04/23 12:03:53;;;;;;;2.00;1.70;;;;;;;16.13;45.08;99316.34;108892;1260;61796;-27
2024/04/23 12:06:24;;;;;;;2.30;1.90;;;;;;;16.14;44.71;99312.23;108802;1260;75715;-27
2024/04/23 12:08:54;;;;;;;2.20;1.80;;;;;;;16.27;45.01;99308.52;108774;1260;73652;-27
2024/04/23 12:18:57;;;;;;;3.30;2.10;;;;;;;16.55;44.98;99276.41;102660;1294;600607;-26
2024/04/23 12:21:25;;;;;;;4.00;1.90;;;;;;;16.85;44.83;99268.61;105881;1257;61196;-26
2024/04/23 12:23:55;;;;;;;2.80;2.30;;;;;;;16.95;43.83;99263.89;105772;1254;61029;-26
2024/04/23 12:26:23;;;;;;;3.10;2.00;;;;;;;16.94;44.39;99273.52;105850;1257;75277;-26
2024/04/23 12:28:53;;;;;;;2.40;2.10;;;;;;;17.18;44.95;99266.65;105736;1254;74348;-28
2024/04/23 12:31:25;;;;;;;2.10;1.90;;;;;;;17.45;43.97;99260.64;104957;1254;5056410;-31
2024/04/23 12:33:59;;;;;;;3.20;2.00;;;;;;;17.23;42.48;99253.65;105926;1251;61734;-27
2024/04/23 12:36:27;;;;;;;2.90;1.90;;;;;;;17.11;42.68;99254.58;105737;1254;61280;-26
2024/04/23 12:38:54;;;;;;;2.00;1.80;;;;;;;16.95;43.35;99248.64;105728;1251;61064;-26
2024/04/23 12:41:23;;;;;;;2.30;2.00;;;;;;;16.78;42.93;99246.33;105721;1256;73227;-26
2024/04/23 12:43:51;;;;;;;2.50;2.10;;;;;;;16.55;43.09;99242.40;105771;1252;75296;-27
2024/04/23 12:46:18;;;;;;;2.60;2.10;;;;;;;16.46;44.06;99243.50;105806;1251;71361;-27
2024/04/23 12:48:49;;;;;;;4.30;2.80;;;;;;;16.28;44.74;99242.55;105727;1251;61018;-27
2024/04/23 12:51:16;;;;;;;3.40;2.40;;;;;;;16.24;45.20;99239.96;105932;1251;61061;-27
2024/04/23 12:53:44;;;;;;;3.80;2.60;;;;;;;16.14;45.08;99239.35;105956;1251;73947;-27
2024/04/23 12:56:11;;;;;;;4.50;2.00;;;;;;;16.10;45.34;99236.80;105931;1255;73440;-27
2024/04/23 12:58:39;;;;;;;2.30;1.80;;;;;;;15.85;45.84;99236.34;105882;1256;73509;-27
2024/04/23 13:01:07;;;;;;;2.00;1.70;;;;;;;15.63;45.61;99231.85;105950;1250;61195;-27
2024/04/23 13:03:35;;;;;;;1.90;1.50;;;;;;;15.47;45.85;99233.02;105955;1251;61086;-27
2024/04/23 13:06:03;;;;;;;2.00;1.60;;;;;;;15.26;45.96;99229.90;105954;1251;74037;-27
2024/04/23 13:08:34;;;;;;;1.80;1.40;;;;;;;15.16;46.09;99230.67;105735;1251;75548;-27
2024/04/23 13:11:01;;;;;;;2.20;1.80;;;;;;;15.04;46.60;99224.11;105836;1257;73753;-26
2024/04/23 13:13:29;;;;;;;2.50;1.70;;;;;;;14.86;47.40;99221.48;105698;1257;61209;-26
2024/04/23 13:15:57;;;;;;;7.00;1.70;;;;;;;14.70;48.00;99218.11;105640;1251;61052;-26
2024/04/23 13:18:24;;;;;;;2.30;1.30;;;;;;;14.76;48.22;99212.71;105775;1257;74881;-27
2024/04/23 13:20:52;;;;;;;2.70;1.80;;;;;;;14.85;48.56;99211.08;105828;1254;75553;-26
2024/04/23 13:23:19;;;;;;;3.50;2.10;;;;;;;14.91;48.17;99209.83;105700;1259;73798;-26
2024/04/23 13:25:47;;;;;;;4.30;1.70;;;;;;;14.89;48.36;99212.64;105856;1254;61117;-26